<?xml version="1.0" encoding="UTF-8" standalone="no" ?>
<gpx xmlns="http://www.topografix.com/GPX/1/1" xmlns:xsi="http://www.w3.org/2001/XMLSchema-instance" xsi:schemaLocation="http://www.topografix.com/GPX/1/1 http://www.topografix.com/GPX/1/1/gpx.xsd" version="1.1" creator="VisuGPX - https://www.visugpx.com">
  <metadata>
    <name>Argentina</name>
    <desc><![CDATA[Downloaded from eMap Software Version 2.75]]></desc>
  </metadata>
  <trk>
    <name><![CDATA[Argentina_59]]></name>
    <extensions>
      <line xmlns="http://www.topografix.com/GPX/gpx_style/0/2">
        <color>ff0000</color>
        <opacity>0.78</opacity>
        <width>0.6000</width>
      </line>
    </extensions>
    <trkseg>
      <trkpt lat="-25.93827" lon="-54.5763">
        <ele>199.61084</ele>
        <time>2005-12-13T12:07:40Z</time>
      </trkpt>
      <trkpt lat="-25.9375" lon="-54.57757">
        <ele>199.61084</ele>
        <time>2005-12-13T12:07:43Z</time>
      </trkpt>
      <trkpt lat="-25.93486" lon="-54.5771">
        <ele>199.61084</ele>
        <time>2005-12-13T12:07:59Z</time>
      </trkpt>
      <trkpt lat="-25.93207" lon="-54.57688">
        <ele>199.61084</ele>
        <time>2005-12-13T12:08:11Z</time>
      </trkpt>
      <trkpt lat="-25.92799" lon="-54.57682">
        <ele>199.61084</ele>
        <time>2005-12-13T12:08:28Z</time>
      </trkpt>
      <trkpt lat="-25.92608" lon="-54.57639">
        <ele>206.340088</ele>
        <time>2005-12-13T12:08:37Z</time>
      </trkpt>
      <trkpt lat="-25.92276" lon="-54.57542">
        <ele>210.185425</ele>
        <time>2005-12-13T12:08:52Z</time>
      </trkpt>
      <trkpt lat="-25.9184" lon="-54.57422">
        <ele>215.472656</ele>
        <time>2005-12-13T12:09:12Z</time>
      </trkpt>
      <trkpt lat="-25.91475" lon="-54.5731">
        <ele>214.991943</ele>
        <time>2005-12-13T12:09:28Z</time>
      </trkpt>
      <trkpt lat="-25.91209" lon="-54.5719">
        <ele>215.472656</ele>
        <time>2005-12-13T12:09:40Z</time>
      </trkpt>
      <trkpt lat="-25.90967" lon="-54.57029">
        <ele>217.875977</ele>
        <time>2005-12-13T12:09:52Z</time>
      </trkpt>
      <trkpt lat="-25.90791" lon="-54.56866">
        <ele>217.395386</ele>
        <time>2005-12-13T12:10:02Z</time>
      </trkpt>
      <trkpt lat="-25.90574" lon="-54.56602">
        <ele>217.395386</ele>
        <time>2005-12-13T12:10:16Z</time>
      </trkpt>
      <trkpt lat="-25.90424" lon="-54.56364">
        <ele>217.395386</ele>
        <time>2005-12-13T12:10:27Z</time>
      </trkpt>
      <trkpt lat="-25.90115" lon="-54.55903">
        <ele>212.108032</ele>
        <time>2005-12-13T12:10:49Z</time>
      </trkpt>
      <trkpt lat="-25.90031" lon="-54.55819">
        <ele>213.550049</ele>
        <time>2005-12-13T12:10:54Z</time>
      </trkpt>
      <trkpt lat="-25.8984" lon="-54.55729">
        <ele>211.627441</ele>
        <time>2005-12-13T12:11:03Z</time>
      </trkpt>
      <trkpt lat="-25.89626" lon="-54.55688">
        <ele>209.224121</ele>
        <time>2005-12-13T12:11:12Z</time>
      </trkpt>
      <trkpt lat="-25.8934" lon="-54.55705">
        <ele>209.224121</ele>
        <time>2005-12-13T12:11:24Z</time>
      </trkpt>
      <trkpt lat="-25.89134" lon="-54.55789">
        <ele>210.185425</ele>
        <time>2005-12-13T12:11:33Z</time>
      </trkpt>
      <trkpt lat="-25.89089" lon="-54.55808">
        <ele>210.185425</ele>
        <time>2005-12-13T12:11:35Z</time>
      </trkpt>
      <trkpt lat="-25.88913" lon="-54.55991">
        <ele>208.262817</ele>
        <time>2005-12-13T12:11:45Z</time>
      </trkpt>
      <trkpt lat="-25.8866" lon="-54.56263">
        <ele>207.782104</ele>
        <time>2005-12-13T12:12:00Z</time>
      </trkpt>
      <trkpt lat="-25.88441" lon="-54.56328">
        <ele>205.859497</ele>
        <time>2005-12-13T12:12:10Z</time>
      </trkpt>
      <trkpt lat="-25.88167" lon="-54.56332">
        <ele>206.340088</ele>
        <time>2005-12-13T12:12:22Z</time>
      </trkpt>
      <trkpt lat="-25.88014" lon="-54.5627">
        <ele>204.41748</ele>
        <time>2005-12-13T12:12:29Z</time>
      </trkpt>
      <trkpt lat="-25.87885" lon="-54.56158">
        <ele>202.975464</ele>
        <time>2005-12-13T12:12:36Z</time>
      </trkpt>
      <trkpt lat="-25.87851" lon="-54.56126">
        <ele>203.456177</ele>
        <time>2005-12-13T12:12:38Z</time>
      </trkpt>
      <trkpt lat="-25.8728" lon="-54.55401">
        <ele>203.456177</ele>
        <time>2005-12-13T12:13:16Z</time>
      </trkpt>
    </trkseg>
  </trk>
</gpx>